createdAt,value
2022-12-20T00:01:34.764Z,2.64
2022-12-20T00:04:05.771Z,2.63
2022-12-20T00:06:35.872Z,2.63
2022-12-20T00:09:08.020Z,2.62
2022-12-20T00:11:35.387Z,2.64
2022-12-20T00:14:02.317Z,2.55
2022-12-20T00:16:30.414Z,2.61
2022-12-20T00:19:02.393Z,2.72
2022-12-20T00:21:30.368Z,2.71
2022-12-20T00:23:57.882Z,2.77
2022-12-20T00:26:29.304Z,2.77
2022-12-20T00:28:56.836Z,2.92
2022-12-20T00:31:26.167Z,2.85
2022-12-20T00:33:55.741Z,2.86
2022-12-20T00:36:24.891Z,2.85
2022-12-20T00:38:55.044Z,3.01
2022-12-20T00:41:26.453Z,2.90
2022-12-20T00:43:54.379Z,2.82
2022-12-20T00:46:23.603Z,2.82
2022-12-20T00:48:51.288Z,2.88
2022-12-20T00:51:22.264Z,2.82
2022-12-20T00:53:49.204Z,2.88
2022-12-20T00:56:16.354Z,2.87
2022-12-20T00:58:44.675Z,2.90
2022-12-20T01:01:27.588Z,2.92
2022-12-20T01:03:55.079Z,2.92
2022-12-20T01:06:23.944Z,2.95
2022-12-20T01:08:52.129Z,3.09
2022-12-20T01:11:31.702Z,3.02
2022-12-20T01:14:03.971Z,2.91
2022-12-20T01:16:46.375Z,2.91
2022-12-20T01:19:16.652Z,2.88
2022-12-20T01:21:47.126Z,3.04
2022-12-20T01:24:16.431Z,2.95
2022-12-20T01:26:44.785Z,2.97
2022-12-20T01:29:12.203Z,2.94
2022-12-20T01:31:39.167Z,2.92
2022-12-20T01:34:06.798Z,3.01
2022-12-20T01:36:38.100Z,2.95
2022-12-20T01:39:17.002Z,3.03
2022-12-20T01:41:45.707Z,2.87
2022-12-20T01:44:18.586Z,2.93
2022-12-20T01:46:48.266Z,2.83
2022-12-20T01:49:27.214Z,2.94
2022-12-20T01:52:15.928Z,2.78
2022-12-20T01:55:17.955Z,2.78
2022-12-20T01:57:48.414Z,2.74
2022-12-20T02:00:17.221Z,2.93
2022-12-20T02:02:48.071Z,2.98
2022-12-20T02:05:19.181Z,3.31
2022-12-20T02:07:50.447Z,3.30
2022-12-20T02:10:19.422Z,3.14
2022-12-20T02:12:47.828Z,3.12
2022-12-20T02:15:31.836Z,3.17
2022-12-20T02:18:19.001Z,3.19
2022-12-20T02:21:29.049Z,3.13
2022-12-20T02:24:02.055Z,3.13
2022-12-20T02:26:40.961Z,3.00
2022-12-20T02:29:52.295Z,2.87
2022-12-20T02:32:32.326Z,2.91
2022-12-20T02:34:59.265Z,2.92
2022-12-20T02:37:26.137Z,2.91
2022-12-20T02:39:53.285Z,2.84
2022-12-20T02:42:24.179Z,2.86
2022-12-20T02:45:16.731Z,2.91
2022-12-20T02:48:08.326Z,2.98
2022-12-20T02:50:49.406Z,3.05
2022-12-20T02:53:17.083Z,3.02
2022-12-20T02:55:58.860Z,3.05
2022-12-20T02:58:34.714Z,2.93
2022-12-20T03:01:07.960Z,2.94
2022-12-20T03:03:36.834Z,2.89
2022-12-20T03:06:04.545Z,2.86
2022-12-20T03:08:31.721Z,2.82
2022-12-20T03:10:58.696Z,2.73
2022-12-20T03:13:25.911Z,2.55
2022-12-20T03:15:52.949Z,2.65
2022-12-20T03:18:19.882Z,2.59
2022-12-20T03:20:46.845Z,2.63
2022-12-20T03:23:14.026Z,2.59
2022-12-20T03:25:41.072Z,2.63
2022-12-20T03:28:08.049Z,2.63
2022-12-20T03:30:35.154Z,2.44
2022-12-20T03:33:02.148Z,2.38
2022-12-20T03:35:29.028Z,2.40
2022-12-20T03:37:56.444Z,2.48
2022-12-20T03:40:23.644Z,2.41
2022-12-20T03:42:50.533Z,2.41
2022-12-20T03:45:17.938Z,2.38
2022-12-20T03:47:44.858Z,2.62
2022-12-20T03:50:12.427Z,2.26
2022-12-20T03:52:40.051Z,2.36
2022-12-20T03:55:08.094Z,2.49
2022-12-20T03:57:35.099Z,2.44
2022-12-20T04:00:02.273Z,2.45
2022-12-20T04:02:29.375Z,2.37
2022-12-20T04:04:56.492Z,2.36
2022-12-20T04:07:23.395Z,2.41
2022-12-20T04:09:50.301Z,2.38
2022-12-20T04:12:17.300Z,2.43
2022-12-20T04:14:44.197Z,2.43
2022-12-20T04:17:11.138Z,2.43
2022-12-20T04:19:38.089Z,2.39
2022-12-20T04:22:06.282Z,2.38
2022-12-20T04:24:33.494Z,2.32
2022-12-20T04:27:00.490Z,2.36
2022-12-20T04:29:27.861Z,2.41
2022-12-20T04:31:54.781Z,2.40
2022-12-20T04:34:21.682Z,2.49
2022-12-20T04:36:48.746Z,2.81
2022-12-20T04:39:15.710Z,2.78
2022-12-20T04:41:42.650Z,2.79
2022-12-20T04:44:09.527Z,2.89
2022-12-20T04:46:36.612Z,2.97
2022-12-20T04:49:04.000Z,3.00
2022-12-20T04:51:31.344Z,3.04
2022-12-20T04:53:58.294Z,3.12
2022-12-20T04:56:28.872Z,3.16
2022-12-20T04:58:58.887Z,3.02
2022-12-20T05:01:26.685Z,2.95
2022-12-20T05:03:54.486Z,3.08
2022-12-20T05:06:21.723Z,2.95
2022-12-20T05:08:48.822Z,2.75
2022-12-20T05:11:16.015Z,2.73
2022-12-20T05:13:43.073Z,2.65
2022-12-20T05:16:10.298Z,2.62
2022-12-20T05:18:39.519Z,2.66
2022-12-20T05:21:28.472Z,2.65
2022-12-20T05:24:13.939Z,2.65
2022-12-20T05:26:41.247Z,2.66
2022-12-20T05:29:08.110Z,2.65
2022-12-20T05:31:35.399Z,2.66
2022-12-20T05:34:03.406Z,2.69
2022-12-20T05:36:30.382Z,2.74
2022-12-20T05:39:03.658Z,2.65
2022-12-20T05:41:31.112Z,2.64
2022-12-20T05:43:58.355Z,2.70
2022-12-20T05:46:25.389Z,2.71
2022-12-20T05:48:52.799Z,2.76
2022-12-20T05:51:19.698Z,2.71
2022-12-20T05:53:46.703Z,2.44
2022-12-20T05:56:13.683Z,2.40
2022-12-20T05:58:40.600Z,2.51
2022-12-20T06:01:08.776Z,2.64
2022-12-20T06:03:36.540Z,2.62
2022-12-20T06:06:10.108Z,2.54
2022-12-20T06:08:38.952Z,2.60
2022-12-20T06:11:07.026Z,2.57
2022-12-20T06:13:33.933Z,2.45
2022-12-20T06:16:00.985Z,2.47
2022-12-20T06:18:28.269Z,2.47
2022-12-20T06:20:55.592Z,2.59
2022-12-20T06:23:23.392Z,2.48
2022-12-20T06:25:50.367Z,2.34
2022-12-20T06:28:21.817Z,2.29
2022-12-20T06:30:57.564Z,2.19
2022-12-20T06:33:25.195Z,2.15
2022-12-20T06:35:53.329Z,2.11
2022-12-20T06:38:20.243Z,2.15
2022-12-20T06:40:47.179Z,2.15
2022-12-20T06:43:14.468Z,2.21
2022-12-20T06:45:42.483Z,2.33
2022-12-20T06:48:10.399Z,2.44
2022-12-20T06:50:39.154Z,2.51
2022-12-20T06:53:06.114Z,2.53
2022-12-20T06:55:33.488Z,2.66
2022-12-20T06:58:00.389Z,2.82
2022-12-20T07:00:27.499Z,2.83
2022-12-20T07:02:54.865Z,2.87
2022-12-20T07:05:22.053Z,2.87
2022-12-20T07:07:49.240Z,2.93
2022-12-20T07:10:16.360Z,3.06
2022-12-20T07:12:47.734Z,2.94
2022-12-20T07:15:16.083Z,2.83
2022-12-20T07:17:43.209Z,2.87
2022-12-20T07:20:13.993Z,2.90
2022-12-20T07:22:41.818Z,2.92
2022-12-20T07:25:09.965Z,2.94
2022-12-20T07:27:37.051Z,2.89
2022-12-20T07:30:05.220Z,2.97
2022-12-20T07:32:32.271Z,2.97
2022-12-20T07:34:59.407Z,3.08
2022-12-20T07:37:28.878Z,3.26
2022-12-20T07:39:55.922Z,3.25
2022-12-20T07:42:22.926Z,3.34
2022-12-20T07:44:49.991Z,3.46
2022-12-20T07:47:16.936Z,3.39
2022-12-20T07:49:43.848Z,3.44
2022-12-20T07:52:13.993Z,3.47
2022-12-20T07:54:47.652Z,3.58
2022-12-20T07:57:22.324Z,3.66
2022-12-20T07:59:54.516Z,3.81
2022-12-20T08:02:32.923Z,4.04
2022-12-20T08:05:00.365Z,4.14
2022-12-20T08:07:29.547Z,4.06
2022-12-20T08:09:56.938Z,4.03
2022-12-20T08:12:25.883Z,4.17
2022-12-20T08:14:56.230Z,4.22
2022-12-20T08:17:23.655Z,4.08
2022-12-20T08:19:53.597Z,4.32
2022-12-20T08:22:20.852Z,4.22
2022-12-20T08:24:47.776Z,4.15
2022-12-20T08:27:15.344Z,4.10
2022-12-20T08:29:42.280Z,4.15
2022-12-20T08:32:10.142Z,4.30
2022-12-20T08:34:37.064Z,4.26
2022-12-20T08:37:07.779Z,4.32
2022-12-20T08:39:37.732Z,4.28
2022-12-20T08:42:05.827Z,4.33
2022-12-20T08:44:32.739Z,4.34
2022-12-20T08:46:59.630Z,4.35
2022-12-20T08:49:26.566Z,4.25
2022-12-20T08:51:53.497Z,4.22
2022-12-20T08:54:20.537Z,4.37
2022-12-20T08:56:47.688Z,4.23
2022-12-20T08:59:14.630Z,4.17
2022-12-20T09:01:41.642Z,4.36
2022-12-20T09:04:11.730Z,4.50
2022-12-20T09:06:39.396Z,4.48
2022-12-20T09:09:07.304Z,4.42
2022-12-20T09:11:34.802Z,4.48
2022-12-20T09:14:01.828Z,4.64
2022-12-20T09:16:32.703Z,4.74
2022-12-20T09:19:05.551Z,4.62
2022-12-20T09:21:34.402Z,4.75
2022-12-20T09:24:01.500Z,4.84
2022-12-20T09:26:28.552Z,4.81
2022-12-20T09:28:55.496Z,4.93
2022-12-20T09:31:25.874Z,4.89
2022-12-20T09:33:58.465Z,4.81
2022-12-20T09:36:28.014Z,4.90
2022-12-20T09:38:56.032Z,5.12
2022-12-20T09:41:34.790Z,5.19
2022-12-20T09:44:32.192Z,5.38
2022-12-20T09:47:23.115Z,5.47
2022-12-20T09:49:54.908Z,5.66
2022-12-20T09:52:30.901Z,5.83
2022-12-20T09:55:28.464Z,5.92
2022-12-20T09:58:18.584Z,5.87
2022-12-20T10:00:54.185Z,5.78
2022-12-20T10:03:33.653Z,5.81
2022-12-20T10:06:29.115Z,5.83
2022-12-20T10:09:34.291Z,5.76
2022-12-20T10:12:38.093Z,5.65
2022-12-20T10:15:34.128Z,5.68
2022-12-20T10:18:26.515Z,5.65
2022-12-20T10:21:08.813Z,5.69
2022-12-20T10:24:13.669Z,5.71
2022-12-20T10:26:40.935Z,5.78
2022-12-20T10:29:08.712Z,5.92
2022-12-20T10:31:36.352Z,5.87
2022-12-20T10:34:03.409Z,6.04
2022-12-20T10:36:36.436Z,5.95
2022-12-20T10:39:08.472Z,6.03
2022-12-20T10:41:42.721Z,5.91
2022-12-20T10:44:22.081Z,5.96
2022-12-20T10:46:54.816Z,5.83
2022-12-20T10:49:26.609Z,6.22
2022-12-20T10:52:08.390Z,6.30
2022-12-20T10:54:41.912Z,6.07
2022-12-20T10:57:31.631Z,5.89
2022-12-20T11:00:02.571Z,5.97
2022-12-20T11:02:40.733Z,6.06
2022-12-20T11:05:11.610Z,5.91
2022-12-20T11:08:34.867Z,6.06
2022-12-20T11:10:49.044Z,6.14
2022-12-20T11:13:26.966Z,6.03
2022-12-20T11:15:57.726Z,6.24
2022-12-20T11:18:39.765Z,6.25
2022-12-20T11:21:11.076Z,6.15
2022-12-20T11:24:23.247Z,6.08
2022-12-20T11:27:19.843Z,6.11
2022-12-20T11:30:13.657Z,6.05
2022-12-20T11:33:17.654Z,6.02
2022-12-20T11:36:06.363Z,5.98
2022-12-20T11:38:50.172Z,5.84
2022-12-20T11:41:55.422Z,5.94
2022-12-20T11:44:52.163Z,6.04
2022-12-20T11:47:42.986Z,6.34
2022-12-20T11:50:45.780Z,6.22
2022-12-20T11:53:50.973Z,6.22
2022-12-20T11:56:26.430Z,6.21
2022-12-20T11:59:06.150Z,6.22
2022-12-20T12:01:44.950Z,6.20
2022-12-20T12:04:20.298Z,6.24
2022-12-20T12:07:13.723Z,6.17
2022-12-20T12:10:14.258Z,6.23
2022-12-20T12:12:48.674Z,6.12
2022-12-20T12:15:17.006Z,6.24
2022-12-20T12:18:16.841Z,6.27
2022-12-20T12:21:44.444Z,6.27
2022-12-20T12:24:39.319Z,6.36
2022-12-20T12:27:16.403Z,6.18
2022-12-20T12:29:43.816Z,6.30
2022-12-20T12:32:56.201Z,6.64
2022-12-20T12:36:04.250Z,6.54
2022-12-20T12:38:47.323Z,6.58
2022-12-20T12:41:50.881Z,6.60
2022-12-20T12:44:20.759Z,6.44
2022-12-20T12:46:58.128Z,6.46
2022-12-20T12:49:28.653Z,6.46
2022-12-20T12:52:01.627Z,6.49
2022-12-20T12:54:37.053Z,6.54
2022-12-20T12:57:14.242Z,6.63
2022-12-20T12:59:50.044Z,6.64
2022-12-20T13:02:21.048Z,6.63
2022-12-20T13:05:06.421Z,6.61
2022-12-20T13:07:33.339Z,6.65
2022-12-20T13:10:05.810Z,6.72
2022-12-20T13:12:38.900Z,6.80
2022-12-20T13:15:20.953Z,6.78
2022-12-20T13:18:10.733Z,6.71
2022-12-20T13:20:38.615Z,6.60
2022-12-20T13:23:08.635Z,6.45
2022-12-20T13:25:41.958Z,6.38
2022-12-20T13:28:24.179Z,6.51
2022-12-20T13:30:54.237Z,6.44
2022-12-20T13:33:25.134Z,6.65
2022-12-20T13:36:23.916Z,6.72
2022-12-20T13:39:25.453Z,6.59
2022-12-20T13:42:22.878Z,6.59
2022-12-20T13:44:52.517Z,6.67
2022-12-20T13:47:25.201Z,6.58
2022-12-20T13:49:52.715Z,6.62
2022-12-20T13:52:29.860Z,6.55
2022-12-20T13:55:06.834Z,6.59
2022-12-20T13:57:45.961Z,6.61
2022-12-20T14:00:28.261Z,6.48
2022-12-20T14:02:56.156Z,6.41
2022-12-20T14:05:28.522Z,6.59
2022-12-20T14:08:08.931Z,6.57
2022-12-20T14:10:36.502Z,6.57
2022-12-20T14:13:03.905Z,6.22
2022-12-20T14:15:35.514Z,6.24
2022-12-20T14:18:22.715Z,6.18
2022-12-20T14:21:00.008Z,6.28
2022-12-20T14:23:38.257Z,6.20
2022-12-20T14:26:07.298Z,6.22
2022-12-20T14:28:41.012Z,6.28
2022-12-20T14:31:39.346Z,6.41
2022-12-20T14:34:30.355Z,6.47
2022-12-20T14:37:28.307Z,6.58
2022-12-20T14:40:19.321Z,6.49
2022-12-20T14:42:46.746Z,6.42
2022-12-20T14:45:13.646Z,6.41
2022-12-20T14:48:06.719Z,6.48
2022-12-20T14:50:35.900Z,6.15
2022-12-20T14:53:04.032Z,6.11
2022-12-20T14:55:39.593Z,6.16
2022-12-20T14:58:29.769Z,5.98
2022-12-20T15:01:21.563Z,5.99
2022-12-20T15:03:51.535Z,5.93
2022-12-20T15:06:43.659Z,5.90
2022-12-20T15:09:10.670Z,5.98
2022-12-20T15:11:39.080Z,6.00
2022-12-20T15:14:32.918Z,6.05
2022-12-20T15:17:01.094Z,6.09
2022-12-20T15:19:28.094Z,6.00
2022-12-20T15:21:55.076Z,6.01
2022-12-20T15:24:26.745Z,6.06
2022-12-20T15:26:54.952Z,6.13
2022-12-20T15:29:27.607Z,6.13
2022-12-20T15:32:25.770Z,6.01
2022-12-20T15:34:52.803Z,5.95
2022-12-20T15:37:19.728Z,6.02
2022-12-20T15:39:46.787Z,5.91
2022-12-20T15:42:18.572Z,5.92
2022-12-20T15:44:45.826Z,5.94
2022-12-20T15:47:14.042Z,5.94
2022-12-20T15:49:47.859Z,5.98
2022-12-20T15:52:21.888Z,5.99
2022-12-20T15:54:49.676Z,5.99
2022-12-20T15:57:16.878Z,5.94
2022-12-20T16:00:01.704Z,5.82
2022-12-20T16:02:30.811Z,5.52
2022-12-20T16:04:58.883Z,5.41
2022-12-20T16:07:26.142Z,5.51
2022-12-20T16:09:53.993Z,5.65
2022-12-20T16:12:29.272Z,5.80
2022-12-20T16:14:56.942Z,5.90
2022-12-20T16:17:24.811Z,5.96
2022-12-20T16:19:51.705Z,5.94
2022-12-20T16:22:23.974Z,5.85
2022-12-20T16:24:51.699Z,5.96
2022-12-20T16:27:18.847Z,5.93
2022-12-20T16:29:46.001Z,5.86
2022-12-20T16:32:19.639Z,5.89
2022-12-20T16:34:46.777Z,5.84
2022-12-20T16:37:13.977Z,5.96
2022-12-20T16:39:41.969Z,6.05
2022-12-20T16:42:18.007Z,6.04
2022-12-20T16:44:46.016Z,6.04
2022-12-20T16:47:15.001Z,6.00
2022-12-20T16:49:49.672Z,6.01
2022-12-20T16:52:21.809Z,6.00
2022-12-20T16:54:48.988Z,5.85
2022-12-20T16:57:15.882Z,5.95
2022-12-20T16:59:42.810Z,5.91
2022-12-20T17:02:34.302Z,5.99
2022-12-20T17:05:02.230Z,5.90
2022-12-20T17:07:29.261Z,5.91
2022-12-20T17:09:56.329Z,5.88
2022-12-20T17:12:23.510Z,5.77
2022-12-20T17:14:50.623Z,5.87
2022-12-20T17:17:17.708Z,5.99
2022-12-20T17:19:44.768Z,5.97
2022-12-20T17:22:24.939Z,5.97
2022-12-20T17:24:52.016Z,6.08
2022-12-20T17:27:19.018Z,6.09
2022-12-20T17:29:46.092Z,6.04
2022-12-20T17:32:25.820Z,6.02
2022-12-20T17:34:53.590Z,6.14
2022-12-20T17:37:21.462Z,6.06
2022-12-20T17:39:48.924Z,6.06
2022-12-20T17:42:16.732Z,6.12
2022-12-20T17:44:43.832Z,6.02
2022-12-20T17:47:11.704Z,6.06
2022-12-20T17:49:39.068Z,6.18
2022-12-20T17:52:06.083Z,6.23
2022-12-20T17:54:39.777Z,6.36
2022-12-20T17:57:13.185Z,6.31
2022-12-20T17:59:40.173Z,6.28
2022-12-20T18:02:27.387Z,6.19
2022-12-20T18:04:54.535Z,6.33
2022-12-20T18:07:21.703Z,6.36
2022-12-20T18:09:49.071Z,6.36
2022-12-20T18:12:17.229Z,6.18
2022-12-20T18:14:44.866Z,6.10
2022-12-20T18:17:11.996Z,6.00
2022-12-20T18:19:39.526Z,6.02
2022-12-20T18:22:06.595Z,6.06
2022-12-20T18:24:33.604Z,6.01
2022-12-20T18:27:00.607Z,5.93
2022-12-20T18:29:28.488Z,5.95
2022-12-20T18:31:55.450Z,6.02
2022-12-20T18:34:22.578Z,6.06
2022-12-20T18:36:49.457Z,6.05
2022-12-20T18:39:16.483Z,5.98
2022-12-20T18:41:44.230Z,5.93
2022-12-20T18:44:11.896Z,5.91
2022-12-20T18:46:39.128Z,5.80
2022-12-20T18:49:06.182Z,5.81
2022-12-20T18:51:38.798Z,5.78
2022-12-20T18:54:09.805Z,5.86
2022-12-20T18:56:39.022Z,5.89
2022-12-20T18:59:12.131Z,5.90
2022-12-20T19:01:41.595Z,5.91
2022-12-20T19:04:10.224Z,6.05
2022-12-20T19:06:38.005Z,6.01
2022-12-20T19:09:11.859Z,5.95
2022-12-20T19:11:40.325Z,5.89
2022-12-20T19:14:08.222Z,6.05
2022-12-20T19:16:36.443Z,5.93
2022-12-20T19:19:04.582Z,5.89
2022-12-20T19:21:34.711Z,5.74
2022-12-20T19:24:06.771Z,5.81
2022-12-20T19:26:36.368Z,5.82
2022-12-20T19:29:05.018Z,5.87
2022-12-20T19:31:36.250Z,5.80
2022-12-20T19:34:11.863Z,5.84
2022-12-20T19:36:46.349Z,6.22
2022-12-20T19:39:20.403Z,6.08
2022-12-20T19:42:15.652Z,6.14
2022-12-20T19:44:35.588Z,6.32
2022-12-20T19:47:05.831Z,6.43
2022-12-20T19:49:33.388Z,6.53
2022-12-20T19:52:00.268Z,6.48
2022-12-20T19:54:27.297Z,6.42
2022-12-20T19:56:54.270Z,6.28
2022-12-20T19:59:21.220Z,6.22
2022-12-20T20:01:48.271Z,6.10
2022-12-20T20:04:15.354Z,6.04
2022-12-20T20:06:42.681Z,6.17
2022-12-20T20:09:11.355Z,6.01
2022-12-20T20:11:38.274Z,6.10
2022-12-20T20:14:08.172Z,6.15
2022-12-20T20:16:36.494Z,6.17
2022-12-20T20:19:05.404Z,6.23
2022-12-20T20:21:34.867Z,6.12
2022-12-20T20:24:02.066Z,5.91
2022-12-20T20:26:32.210Z,5.84
2022-12-20T20:29:01.199Z,6.02
2022-12-20T20:31:28.385Z,6.24
2022-12-20T20:33:57.654Z,6.21
2022-12-20T20:36:24.864Z,6.21
2022-12-20T20:38:52.358Z,6.20
2022-12-20T20:41:19.699Z,6.28
2022-12-20T20:43:46.803Z,6.34
2022-12-20T20:46:15.917Z,6.39
2022-12-20T20:48:44.044Z,6.55
2022-12-20T20:51:11.924Z,6.50
2022-12-20T20:53:39.477Z,6.56
2022-12-20T20:56:07.965Z,6.54
2022-12-20T20:58:35.682Z,6.54
2022-12-20T21:01:06.143Z,6.53
2022-12-20T21:03:33.173Z,6.49
2022-12-20T21:06:36.998Z,6.47
2022-12-20T21:08:47.693Z,6.67
2022-12-20T21:11:14.813Z,6.63
2022-12-20T21:13:41.953Z,6.60
2022-12-20T21:16:20.810Z,6.63
2022-12-20T21:18:58.988Z,6.80
2022-12-20T21:21:26.837Z,6.75
2022-12-20T21:23:55.135Z,6.91
2022-12-20T21:26:23.593Z,6.93
2022-12-20T21:28:50.638Z,6.88
2022-12-20T21:31:19.670Z,6.98
2022-12-20T21:33:47.132Z,6.92
2022-12-20T21:36:18.649Z,6.90
2022-12-20T21:38:50.810Z,6.82
2022-12-20T21:41:20.200Z,6.94
2022-12-20T21:43:47.252Z,6.94
2022-12-20T21:46:14.338Z,6.89
2022-12-20T21:48:44.457Z,6.97
2022-12-20T21:51:14.615Z,7.03
2022-12-20T21:53:47.662Z,7.18
2022-12-20T21:56:15.878Z,7.29
2022-12-20T21:58:43.976Z,7.18
2022-12-20T22:01:13.959Z,7.14
2022-12-20T22:03:41.101Z,7.13
2022-12-20T22:06:08.162Z,7.24
2022-12-20T22:08:35.276Z,7.44
2022-12-20T22:11:09.594Z,7.37
2022-12-20T22:13:41.554Z,7.29
2022-12-20T22:16:18.916Z,7.21
2022-12-20T22:18:50.486Z,7.19
2022-12-20T22:21:20.055Z,7.10
2022-12-20T22:23:48.125Z,7.12
2022-12-20T22:26:20.476Z,7.00
2022-12-20T22:28:57.117Z,7.14
2022-12-20T22:31:25.979Z,7.21
2022-12-20T22:33:55.157Z,7.12
2022-12-20T22:36:22.857Z,6.97
2022-12-20T22:38:54.656Z,6.73
2022-12-20T22:41:28.799Z,6.65
2022-12-20T22:43:58.253Z,6.65
2022-12-20T22:46:25.995Z,6.77
2022-12-20T22:48:52.964Z,6.76
2022-12-20T22:51:22.802Z,6.69
2022-12-20T22:53:49.820Z,6.84
2022-12-20T22:56:19.682Z,6.81
2022-12-20T22:58:46.933Z,6.81
2022-12-20T23:01:16.213Z,6.65
2022-12-20T23:03:44.994Z,6.66
2022-12-20T23:06:15.763Z,6.80
2022-12-20T23:08:43.525Z,7.01
2022-12-20T23:11:35.520Z,7.25
2022-12-20T23:14:22.571Z,7.37
2022-12-20T23:16:50.353Z,7.36
2022-12-20T23:19:17.381Z,7.35
2022-12-20T23:22:02.815Z,7.31
2022-12-20T23:24:29.708Z,7.26
2022-12-20T23:26:56.920Z,7.39
2022-12-20T23:29:24.002Z,7.22
2022-12-20T23:31:51.039Z,7.14
2022-12-20T23:34:18.058Z,7.12
2022-12-20T23:36:44.953Z,7.05
2022-12-20T23:39:11.986Z,7.12
2022-12-20T23:41:38.957Z,7.17
2022-12-20T23:44:06.800Z,7.21
2022-12-20T23:46:34.104Z,7.28
2022-12-20T23:49:01.216Z,7.38
2022-12-20T23:51:28.130Z,7.53
2022-12-20T23:53:55.057Z,7.56
2022-12-20T23:56:22.741Z,7.64
2022-12-20T23:58:54.653Z,7.60
